createdAt,value
2018-03-30T00:00:50.107Z,993.4
2018-03-30T00:02:00.215Z,993.36
2018-03-30T00:03:10.350Z,993.32
2018-03-30T00:04:20.426Z,993.29
2018-03-30T00:05:30.230Z,993.3
2018-03-30T00:06:40.305Z,993.25
2018-03-30T00:07:50.109Z,993.25
2018-03-30T00:09:00.243Z,993.22
2018-03-30T00:10:10.043Z,993.19
2018-03-30T00:11:20.113Z,993.23
2018-03-30T00:12:30.183Z,993.2
2018-03-30T00:13:40.254Z,993.21
2018-03-30T00:14:50.373Z,993.23
2018-03-30T00:16:00.459Z,993.25
2018-03-30T00:17:10.546Z,993.29
2018-03-30T00:18:20.360Z,993.27
2018-03-30T00:19:30.454Z,993.29
2018-03-30T00:20:40.321Z,993.35
2018-03-30T00:21:50.399Z,993.29
2018-03-30T00:22:59.951Z,993.28
2018-03-30T00:24:10.026Z,993.28
2018-03-30T00:25:19.836Z,993.3
2018-03-30T00:26:29.910Z,993.32
2018-03-30T00:27:39.973Z,993.3
2018-03-30T00:28:49.790Z,993.32
2018-03-30T00:29:59.588Z,993.3
2018-03-30T00:31:09.408Z,993.31
2018-03-30T00:32:19.464Z,993.36
2018-03-30T00:33:29.278Z,993.36
2018-03-30T00:34:39.093Z,993.34
2018-03-30T00:35:48.906Z,993.37
2018-03-30T00:36:58.710Z,993.41
2018-03-30T00:38:08.795Z,993.49
2018-03-30T00:39:18.375Z,993.51
2018-03-30T00:40:28.445Z,993.49
2018-03-30T00:41:38.519Z,993.51
2018-03-30T00:42:48.589Z,993.51
2018-03-30T00:43:58.172Z,993.5
2018-03-30T00:45:07.981Z,993.51
2018-03-30T00:46:17.798Z,993.51
2018-03-30T00:47:27.860Z,993.56
2018-03-30T00:48:37.673Z,993.56
2018-03-30T00:49:47.726Z,993.58
2018-03-30T00:50:57.531Z,993.6
2018-03-30T00:52:07.078Z,993.62
2018-03-30T00:53:17.138Z,993.59
2018-03-30T00:54:27.199Z,993.59
2018-03-30T00:55:36.734Z,993.63
2018-03-30T00:56:46.808Z,993.6
2018-03-30T00:57:56.888Z,993.61
2018-03-30T00:59:06.963Z,993.6
2018-03-30T01:00:16.766Z,993.62
2018-03-30T01:01:26.612Z,993.66
2018-03-30T01:02:36.472Z,993.65
2018-03-30T01:03:46.530Z,993.67
2018-03-30T01:04:56.618Z,993.63
2018-03-30T01:06:06.719Z,993.67
2018-03-30T01:07:16.836Z,993.66
2018-03-30T01:08:26.912Z,993.64
2018-03-30T01:09:36.700Z,993.64
2018-03-30T01:10:46.811Z,993.66
2018-03-30T01:11:56.350Z,993.6
2018-03-30T01:13:06.430Z,993.59
2018-03-30T01:14:16.234Z,993.59
2018-03-30T01:15:26.043Z,993.56
2018-03-30T01:16:35.851Z,993.57
2018-03-30T01:17:45.914Z,993.53
2018-03-30T01:18:55.708Z,993.49
2018-03-30T01:20:05.513Z,993.48
2018-03-30T01:21:15.571Z,993.51
2018-03-30T01:22:25.098Z,993.49
2018-03-30T01:23:35.165Z,993.42
2018-03-30T01:24:44.983Z,993.4
2018-03-30T01:25:55.052Z,993.38
2018-03-30T01:27:05.119Z,993.39
2018-03-30T01:28:14.926Z,993.36
2018-03-30T01:29:24.979Z,993.36
2018-03-30T01:30:35.045Z,993.31
2018-03-30T01:31:44.846Z,993.3
2018-03-30T01:32:54.650Z,993.3
2018-03-30T01:34:04.185Z,993.31
2018-03-30T01:35:13.974Z,993.31
2018-03-30T01:36:23.555Z,993.3
2018-03-30T01:37:33.622Z,993.28
2018-03-30T01:38:42.909Z,993.28
2018-03-30T01:39:52.461Z,993.25
2018-03-30T01:41:02.262Z,993.21
2018-03-30T01:42:12.325Z,993.2
2018-03-30T01:43:22.396Z,993.22
2018-03-30T01:44:32.476Z,993.19
2018-03-30T01:45:42.277Z,993.21
2018-03-30T01:46:52.334Z,993.12
2018-03-30T01:48:02.145Z,993.17
2018-03-30T01:49:11.948Z,993.17
2018-03-30T01:50:22.015Z,993.17
2018-03-30T01:51:32.067Z,993.17
2018-03-30T01:52:42.131Z,993.15
2018-03-30T01:53:51.934Z,993.18
2018-03-30T01:55:01.762Z,993.2
2018-03-30T01:56:11.829Z,993.18
2018-03-30T01:57:21.890Z,993.14
2018-03-30T01:58:31.974Z,993.12
2018-03-30T01:59:41.563Z,993.14
2018-03-30T02:00:51.405Z,993.16
2018-03-30T02:02:01.484Z,993.19
2018-03-30T02:03:10.764Z,993.19
2018-03-30T02:04:20.837Z,993.21
2018-03-30T02:05:30.689Z,993.17
2018-03-30T02:06:40.742Z,993.14
2018-03-30T02:07:50.795Z,993.08
2018-03-30T02:09:00.862Z,993.04
2018-03-30T02:10:10.939Z,993.02
2018-03-30T02:11:21.080Z,992.99
2018-03-30T02:12:31.158Z,992.94
2018-03-30T02:13:40.969Z,992.95
2018-03-30T02:14:51.040Z,992.96
2018-03-30T02:16:01.125Z,992.97
2018-03-30T02:17:11.189Z,992.96
2018-03-30T02:18:21.244Z,992.97
2018-03-30T02:19:31.058Z,992.97
2018-03-30T02:20:41.123Z,992.91
2018-03-30T02:21:51.199Z,992.94
2018-03-30T02:23:00.481Z,992.93
2018-03-30T02:24:10.288Z,992.94
2018-03-30T02:25:20.370Z,992.86
2018-03-30T02:26:30.434Z,992.89
2018-03-30T02:27:40.492Z,992.89
2018-03-30T02:28:50.364Z,992.96
2018-03-30T02:30:00.415Z,993.03
2018-03-30T02:31:10.507Z,993.03
2018-03-30T02:32:20.332Z,993
2018-03-30T02:33:30.135Z,993
2018-03-30T02:34:39.969Z,993.06
2018-03-30T02:35:50.114Z,993.05
2018-03-30T02:36:59.928Z,993.02
2018-03-30T02:38:10.046Z,993.02
2018-03-30T02:39:20.116Z,992.92
2018-03-30T02:40:30.193Z,992.94
2018-03-30T02:41:40.001Z,992.96
2018-03-30T02:42:50.080Z,993
2018-03-30T02:43:59.623Z,993.06
2018-03-30T02:45:09.707Z,993.1
2018-03-30T02:46:19.909Z,993.21
2018-03-30T02:47:29.980Z,993.25
2018-03-30T02:48:40.054Z,993.34
2018-03-30T02:49:50.139Z,993.35
2018-03-30T02:51:00.206Z,993.35
2018-03-30T02:52:10.278Z,993.37
2018-03-30T02:53:20.358Z,993.38
2018-03-30T02:54:30.170Z,993.35
2018-03-30T02:55:39.745Z,993.31
2018-03-30T02:56:49.826Z,993.34
2018-03-30T02:57:59.640Z,993.31
2018-03-30T02:59:09.449Z,993.31
2018-03-30T03:00:19.572Z,993.36
2018-03-30T03:01:29.657Z,993.4
2018-03-30T03:02:39.737Z,993.35
2018-03-30T03:03:49.856Z,993.34
2018-03-30T03:04:59.678Z,993.29
2018-03-30T03:36:28.513Z,993.1
2018-03-30T03:37:38.563Z,993.07
2018-03-30T03:38:48.112Z,993.02
2018-03-30T03:39:58.158Z,993.01
2018-03-30T03:41:08.222Z,992.97
2018-03-30T03:42:18.060Z,992.95
2018-03-30T03:43:27.859Z,992.94
2018-03-30T03:44:37.935Z,992.94
2018-03-30T03:45:47.744Z,992.95
2018-03-30T03:46:57.281Z,992.9
2018-03-30T03:48:06.861Z,992.89
2018-03-30T03:49:16.642Z,992.9
2018-03-30T03:50:26.433Z,992.92
2018-03-30T03:51:36.510Z,992.9
2018-03-30T03:52:46.573Z,992.93
2018-03-30T03:53:56.699Z,992.93
2018-03-30T03:55:06.512Z,992.93
2018-03-30T03:56:16.047Z,992.9
2018-03-30T03:57:25.839Z,992.87
2018-03-30T03:58:35.643Z,992.88
2018-03-30T03:59:44.922Z,992.87
2018-03-30T04:00:54.208Z,992.91
2018-03-30T04:02:03.788Z,992.95
2018-03-30T04:03:13.849Z,993.01
2018-03-30T04:04:22.861Z,992.95
2018-03-30T04:05:32.656Z,992.96
2018-03-30T04:06:42.734Z,993
2018-03-30T04:07:52.794Z,992.93
2018-03-30T04:09:02.858Z,992.96
2018-03-30T04:10:12.124Z,992.97
2018-03-30T04:11:22.258Z,992.91
2018-03-30T04:12:32.065Z,992.98
2018-03-30T04:13:41.864Z,992.97
2018-03-30T04:14:51.411Z,993.01
2018-03-30T04:16:01.238Z,993.01
2018-03-30T04:17:11.323Z,992.99
2018-03-30T04:18:21.395Z,992.99
2018-03-30T04:19:31.443Z,993.03
2018-03-30T04:20:41.236Z,992.97
2018-03-30T04:21:51.299Z,993.03
2018-03-30T04:23:01.425Z,993.07
2018-03-30T04:24:10.960Z,993.1
2018-03-30T04:25:20.491Z,993.1
2018-03-30T04:26:30.310Z,993.1
2018-03-30T04:27:40.381Z,993.11
2018-03-30T04:28:50.252Z,993.12
2018-03-30T04:30:00.040Z,993.11
2018-03-30T04:31:09.847Z,993.17
2018-03-30T04:32:19.648Z,993.2
2018-03-30T04:33:29.170Z,993.21
2018-03-30T04:34:38.725Z,993.2
2018-03-30T04:35:48.253Z,993.27
2018-03-30T04:36:58.323Z,993.25
2018-03-30T04:38:08.132Z,993.23
2018-03-30T04:39:17.666Z,993.23
2018-03-30T04:40:27.777Z,993.21
2018-03-30T04:41:37.654Z,993.17
2018-03-30T04:42:47.732Z,993.14
2018-03-30T04:43:57.524Z,993.15
2018-03-30T04:45:07.065Z,993.14
2018-03-30T04:46:16.920Z,993.14
2018-03-30T04:47:26.736Z,993.14
2018-03-30T04:48:36.805Z,993.13
2018-03-30T04:49:46.652Z,993.11
2018-03-30T04:50:56.716Z,993.14
2018-03-30T04:52:06.842Z,993.16
2018-03-30T04:53:16.638Z,993.2
2018-03-30T04:54:26.434Z,993.15
2018-03-30T04:55:36.238Z,993.06
2018-03-30T04:56:46.071Z,993.02
2018-03-30T04:57:56.137Z,992.97
2018-03-30T04:59:05.668Z,993.02
2018-03-30T05:00:15.461Z,993.03
2018-03-30T05:01:25.005Z,993.05
2018-03-30T05:02:34.807Z,993.17
2018-03-30T05:03:44.614Z,993.16
2018-03-30T05:04:54.679Z,993.09
2018-03-30T05:06:04.747Z,993.07
2018-03-30T05:07:14.818Z,993.12
2018-03-30T05:08:24.609Z,993.16
2018-03-30T05:09:34.400Z,993.11
2018-03-30T05:10:44.475Z,993.12
2018-03-30T05:11:54.552Z,993.08
2018-03-30T05:13:04.090Z,993.13
2018-03-30T05:14:13.895Z,993.13
2018-03-30T05:15:23.962Z,993.17
2018-03-30T05:16:33.807Z,993.2
2018-03-30T05:17:43.343Z,993.21
2018-03-30T05:18:53.148Z,993.17
2018-03-30T05:20:03.209Z,993.19
2018-03-30T05:21:13.357Z,993.19
2018-03-30T05:22:22.904Z,993.19
2018-03-30T05:23:32.694Z,993.21
2018-03-30T05:24:42.759Z,993.23
2018-03-30T05:25:52.597Z,993.22
2018-03-30T05:27:02.654Z,993.21
2018-03-30T05:28:12.441Z,993.16
2018-03-30T05:29:22.512Z,993.17
2018-03-30T05:30:32.056Z,993.16
2018-03-30T05:31:41.597Z,993.17
2018-03-30T05:32:51.714Z,993.11
2018-03-30T05:34:01.260Z,993.14
2018-03-30T05:35:11.130Z,993.13
2018-03-30T05:36:21.181Z,993.16
2018-03-30T05:37:31.254Z,993.18
2018-03-30T05:38:40.842Z,993.19
2018-03-30T05:39:50.644Z,993.19
2018-03-30T05:41:00.172Z,993.18
2018-03-30T05:42:09.968Z,993.2
2018-03-30T05:43:19.776Z,993.17
2018-03-30T05:44:29.820Z,993.13
2018-03-30T05:45:39.891Z,993.11
2018-03-30T05:46:49.951Z,993.09
2018-03-30T05:47:59.745Z,993.09
2018-03-30T05:49:09.553Z,993.09
2018-03-30T05:50:19.619Z,993.1
2018-03-30T05:51:29.425Z,993.12
2018-03-30T05:52:39.226Z,993.1
2018-03-30T05:53:49.024Z,993.14
2018-03-30T05:54:58.291Z,993.15
2018-03-30T05:56:08.374Z,993.15
2018-03-30T05:57:18.431Z,993.14
2018-03-30T05:58:28.535Z,993.13
2018-03-30T05:59:38.602Z,993.08
2018-03-30T06:00:48.406Z,993.07
2018-03-30T06:01:58.523Z,993.09
2018-03-30T06:03:08.597Z,993.11
2018-03-30T06:04:18.128Z,993.15
2018-03-30T06:05:27.936Z,993.12
2018-03-30T06:06:38.014Z,993.1
2018-03-30T06:07:47.851Z,993.13
2018-03-30T06:08:57.912Z,993.11
2018-03-30T06:10:07.716Z,993.16
2018-03-30T06:11:17.255Z,993.12
2018-03-30T06:12:27.347Z,993.11
2018-03-30T06:13:36.622Z,993.13
2018-03-30T06:14:46.171Z,993.08
2018-03-30T06:15:55.968Z,993.08
2018-03-30T06:17:06.033Z,993.08
2018-03-30T06:18:15.844Z,993.09
2018-03-30T06:19:25.923Z,993.04
2018-03-30T06:20:35.987Z,993.02
2018-03-30T06:21:45.783Z,992.98
2018-03-30T06:22:55.563Z,992.96
2018-03-30T06:24:04.839Z,992.94
2018-03-30T06:25:14.655Z,992.96
2018-03-30T06:26:24.453Z,992.98
2018-03-30T06:27:33.989Z,992.98
2018-03-30T06:28:43.529Z,992.98
2018-03-30T06:29:53.345Z,993.01
2018-03-30T06:31:03.416Z,993
2018-03-30T06:32:12.952Z,993.05
2018-03-30T06:33:22.939Z,993.08
2018-03-30T06:34:32.757Z,993.08
2018-03-30T06:35:42.844Z,993.06
2018-03-30T06:36:52.382Z,993.03
2018-03-30T06:38:02.442Z,993.09
2018-03-30T06:39:11.992Z,993.09
2018-03-30T06:40:22.053Z,993.09
2018-03-30T06:41:32.120Z,993.08
2018-03-30T06:42:42.172Z,993.11
2018-03-30T06:43:51.711Z,993.14
2018-03-30T06:45:01.780Z,993.14
2018-03-30T06:46:11.888Z,993.14
2018-03-30T06:47:21.959Z,993.13
2018-03-30T06:48:31.770Z,993.17
2018-03-30T06:49:41.576Z,993.18
2018-03-30T06:50:51.764Z,993.22
2018-03-30T06:52:01.890Z,993.26
2018-03-30T06:53:11.956Z,993.25
2018-03-30T06:54:21.767Z,993.27
2018-03-30T06:55:31.850Z,993.23
2018-03-30T06:56:41.920Z,993.25
2018-03-30T06:57:51.771Z,993.22
2018-03-30T06:59:01.586Z,993.22
2018-03-30T07:00:11.128Z,993.29
2018-03-30T07:01:21.250Z,993.24
2018-03-30T07:02:31.302Z,993.25
2018-03-30T07:03:40.835Z,993.24
2018-03-30T07:04:50.924Z,993.29
2018-03-30T07:06:00.796Z,993.26
2018-03-30T07:07:10.676Z,993.25
2018-03-30T07:08:20.730Z,993.25
2018-03-30T07:09:30.542Z,993.25
2018-03-30T07:10:40.354Z,993.18
2018-03-30T07:11:50.156Z,993.16
2018-03-30T07:12:59.965Z,993.13
2018-03-30T07:14:09.766Z,993.14
2018-03-30T07:15:19.888Z,993.12
2018-03-30T07:16:29.956Z,993.09
2018-03-30T07:17:40.051Z,993.12
2018-03-30T07:18:49.593Z,993.12
2018-03-30T07:19:58.903Z,993.09
2018-03-30T07:21:08.712Z,993.1
2018-03-30T07:22:18.256Z,993.1
2018-03-30T07:23:28.048Z,993.1
2018-03-30T07:24:37.876Z,993.09
2018-03-30T07:25:47.166Z,993.09
2018-03-30T07:26:56.716Z,993.16
2018-03-30T07:28:06.781Z,993.1
2018-03-30T07:29:16.889Z,993.09
2018-03-30T07:30:26.708Z,993.06
2018-03-30T07:31:36.782Z,993.04
2018-03-30T07:32:46.909Z,993.01
2018-03-30T07:33:56.998Z,993.01
2018-03-30T07:35:06.808Z,993.03
2018-03-30T07:36:16.637Z,992.98
2018-03-30T07:37:26.173Z,992.97
2018-03-30T07:38:35.975Z,993.02
2018-03-30T07:39:45.781Z,992.99
2018-03-30T07:40:55.624Z,992.92
2018-03-30T07:42:05.434Z,992.95
2018-03-30T07:43:15.272Z,992.94
2018-03-30T07:44:25.092Z,992.94
2018-03-30T07:45:35.167Z,992.88
2018-03-30T07:46:44.987Z,992.87
2018-03-30T07:47:54.789Z,992.85
2018-03-30T07:49:04.935Z,992.88
2018-03-30T07:50:14.735Z,992.88
2018-03-30T07:51:24.811Z,992.85
2018-03-30T07:52:34.889Z,992.86
2018-03-30T07:53:44.955Z,992.92
2018-03-30T07:54:54.747Z,992.97
2018-03-30T07:56:04.276Z,992.99
2018-03-30T07:57:14.333Z,992.98
2018-03-30T07:58:24.429Z,992.9
2018-03-30T07:59:34.235Z,992.97
2018-03-30T08:00:44.300Z,992.94
2018-03-30T08:01:54.434Z,992.95
2018-03-30T08:03:03.718Z,992.86
2018-03-30T08:04:13.534Z,992.9
2018-03-30T08:05:23.385Z,992.89
2018-03-30T08:06:33.448Z,992.87
2018-03-30T08:07:42.989Z,992.85
2018-03-30T08:08:52.818Z,992.91
2018-03-30T08:10:02.977Z,992.93
2018-03-30T08:11:13.050Z,992.9
2018-03-30T08:12:23.125Z,992.98
2018-03-30T08:13:33.194Z,992.99
2018-03-30T08:14:43.269Z,992.99
2018-03-30T08:15:53.239Z,992.97
2018-03-30T08:17:03.206Z,992.97
2018-03-30T08:18:13.284Z,992.93
2018-03-30T08:19:23.121Z,992.95
2018-03-30T08:20:32.973Z,992.92
2018-03-30T08:21:43.050Z,992.87
2018-03-30T08:22:53.132Z,992.84
2018-03-30T08:24:03.236Z,992.86
2018-03-30T08:25:13.045Z,992.89
2018-03-30T08:26:23.128Z,992.84
2018-03-30T08:27:33.210Z,992.82
2018-03-30T08:28:43.029Z,992.82
2018-03-30T08:29:52.852Z,992.8
2018-03-30T08:31:02.943Z,992.78
2018-03-30T08:32:12.771Z,992.79
2018-03-30T08:33:22.575Z,992.78
2018-03-30T08:34:32.390Z,992.81
2018-03-30T08:35:42.260Z,992.76
2018-03-30T08:36:52.105Z,992.82
2018-03-30T08:38:01.895Z,992.9
2018-03-30T08:39:11.969Z,992.88
2018-03-30T08:40:21.778Z,992.89
2018-03-30T08:41:31.866Z,992.94
2018-03-30T08:42:41.918Z,992.93
2018-03-30T08:43:51.735Z,992.91
2018-03-30T08:45:01.800Z,992.91
2018-03-30T08:46:11.887Z,992.84
2018-03-30T08:47:21.959Z,992.84
2018-03-30T08:48:32.023Z,992.86
2018-03-30T08:49:41.822Z,992.82
2018-03-30T08:50:51.893Z,992.75
2018-03-30T08:52:01.970Z,992.77
2018-03-30T08:53:11.784Z,992.77
2018-03-30T08:54:21.854Z,992.84
2018-03-30T08:55:31.681Z,992.78
2018-03-30T08:56:41.494Z,992.77
2018-03-30T08:57:51.309Z,992.75
2018-03-30T08:59:01.411Z,992.73
2018-03-30T09:00:11.463Z,992.68
2018-03-30T09:01:20.760Z,992.71
2018-03-30T09:02:30.630Z,992.69
2018-03-30T09:03:40.439Z,992.68
2018-03-30T09:04:50.613Z,992.6
2018-03-30T09:06:00.420Z,992.58
2018-03-30T09:07:10.284Z,992.58
2018-03-30T09:08:20.094Z,992.64
2018-03-30T09:09:29.648Z,992.55
2018-03-30T09:10:39.209Z,992.59
2018-03-30T09:11:49.025Z,992.65
2018-03-30T09:12:58.554Z,992.58
2018-03-30T09:14:08.083Z,992.61
2018-03-30T09:15:18.155Z,992.61
2018-03-30T09:16:28.227Z,992.58
2018-03-30T09:17:38.026Z,992.61
2018-03-30T09:18:48.093Z,992.55
2018-03-30T09:19:58.189Z,992.61
2018-03-30T09:21:08.255Z,992.6
2018-03-30T09:22:18.363Z,992.68
2018-03-30T09:23:28.180Z,992.66
2018-03-30T09:24:37.749Z,992.67
2018-03-30T09:25:47.556Z,992.66
2018-03-30T09:26:57.099Z,992.69
2018-03-30T09:28:06.986Z,992.72
2018-03-30T09:29:17.069Z,992.64
2018-03-30T09:30:26.854Z,992.7
2018-03-30T09:31:36.656Z,992.71
2018-03-30T09:32:46.487Z,992.71
2018-03-30T09:33:56.343Z,992.68
2018-03-30T09:35:06.136Z,992.62
2018-03-30T09:36:16.214Z,992.64
2018-03-30T09:37:26.019Z,992.62
2018-03-30T09:38:35.828Z,992.62
2018-03-30T09:39:45.647Z,992.65
2018-03-30T09:40:55.729Z,992.69
2018-03-30T09:42:05.807Z,992.63
2018-03-30T09:43:15.885Z,992.57
2018-03-30T09:44:25.442Z,992.49
2018-03-30T09:45:35.261Z,992.53
2018-03-30T09:46:45.110Z,992.57
2018-03-30T09:47:54.926Z,992.58
2018-03-30T09:49:04.477Z,992.57
2018-03-30T09:50:14.576Z,992.58
2018-03-30T09:51:24.659Z,992.52
2018-03-30T09:52:34.755Z,992.48
2018-03-30T09:53:44.290Z,992.44
2018-03-30T09:54:54.376Z,992.35
2018-03-30T09:56:04.439Z,992.37
2018-03-30T09:57:14.513Z,992.42
2018-03-30T09:58:24.796Z,992.42
2018-03-30T09:59:34.597Z,992.28
2018-03-30T10:00:44.689Z,992.31
2018-03-30T10:01:54.772Z,992.2
2018-03-30T10:03:04.594Z,992.19
2018-03-30T10:04:14.655Z,992.2
2018-03-30T10:05:24.771Z,992.1
2018-03-30T10:06:34.372Z,992.09
2018-03-30T10:07:44.496Z,992.08
2018-03-30T10:08:54.582Z,992.09
2018-03-30T10:10:04.660Z,992.09
2018-03-30T10:11:14.473Z,992.06
2018-03-30T10:12:24.026Z,992.09
2018-03-30T10:13:34.097Z,991.91
2018-03-30T10:14:44.169Z,991.97
2018-03-30T10:15:53.700Z,991.99
2018-03-30T10:17:03.528Z,992.01
2018-03-30T10:18:13.618Z,991.88
2018-03-30T10:19:23.431Z,991.9
2018-03-30T10:20:33.239Z,991.89
2018-03-30T10:21:42.775Z,991.89
2018-03-30T10:22:52.324Z,991.87
2018-03-30T10:24:02.425Z,991.77
2018-03-30T10:25:12.500Z,991.83
2018-03-30T10:26:22.311Z,991.68
2018-03-30T10:27:32.109Z,991.69
2018-03-30T10:28:42.194Z,991.68
2018-03-30T10:29:51.750Z,991.72
2018-03-30T10:31:01.603Z,991.7
2018-03-30T10:32:11.424Z,991.73
2018-03-30T10:33:21.268Z,991.72
2018-03-30T10:34:31.344Z,991.61
2018-03-30T10:35:41.159Z,991.62
2018-03-30T10:36:50.988Z,991.6
2018-03-30T10:38:00.786Z,991.65
2018-03-30T10:39:10.850Z,991.62
2018-03-30T10:40:20.918Z,991.55
2018-03-30T10:41:30.459Z,991.53
2018-03-30T10:42:40.550Z,991.54
2018-03-30T10:43:49.829Z,991.44
2018-03-30T10:44:59.915Z,991.5
2018-03-30T10:46:10.008Z,991.51
2018-03-30T10:47:19.556Z,991.52
2018-03-30T10:48:29.646Z,991.6
2018-03-30T10:49:39.447Z,991.57
2018-03-30T10:50:49.527Z,991.57
2018-03-30T10:51:59.349Z,991.46
2018-03-30T10:53:08.922Z,991.53
2018-03-30T10:54:19.005Z,991.45
2018-03-30T10:55:29.071Z,991.43
2018-03-30T10:56:38.907Z,991.4
2018-03-30T10:57:49.160Z,991.36
2018-03-30T10:58:58.976Z,991.34
2018-03-30T11:00:08.263Z,991.38
2018-03-30T11:01:18.101Z,991.38
2018-03-30T11:02:27.136Z,991.34
2018-03-30T11:03:36.935Z,991.42
2018-03-30T11:04:47.028Z,991.36
2018-03-30T11:05:56.836Z,991.34
2018-03-30T11:07:06.133Z,991.33
2018-03-30T11:08:15.710Z,991.27
2018-03-30T11:09:25.521Z,991.31
2018-03-30T11:10:35.328Z,991.23
2018-03-30T11:11:45.125Z,991.21
2018-03-30T11:12:54.671Z,991.26
2018-03-30T11:14:04.748Z,991.24
2018-03-30T11:15:14.550Z,991.3
2018-03-30T11:16:24.366Z,991.22
2018-03-30T11:17:34.462Z,991.13
2018-03-30T11:18:44.261Z,991.09
2018-03-30T11:19:53.797Z,991.17
2018-03-30T11:21:03.925Z,991.12
2018-03-30T11:22:13.731Z,991.18
2018-03-30T11:23:23.561Z,991.11
2018-03-30T11:24:33.373Z,991.2
2018-03-30T11:25:43.676Z,991.05
2018-03-30T11:26:53.540Z,991
2018-03-30T11:28:03.347Z,990.95
2018-03-30T11:29:13.428Z,990.88
2018-03-30T11:30:23.241Z,990.79
2018-03-30T11:31:33.339Z,990.77
2018-03-30T11:32:42.928Z,990.75
2018-03-30T11:33:52.996Z,990.81
2018-03-30T11:35:02.841Z,990.85
2018-03-30T11:36:12.948Z,990.8
2018-03-30T11:37:22.774Z,990.81
2018-03-30T11:38:32.841Z,990.78
2018-03-30T11:39:42.637Z,990.72
2018-03-30T11:40:52.739Z,990.72
2018-03-30T11:42:02.819Z,990.74
2018-03-30T11:43:12.891Z,990.77
2018-03-30T11:44:22.783Z,990.67
2018-03-30T11:45:32.859Z,990.7
2018-03-30T11:46:42.406Z,990.66
2018-03-30T11:47:52.230Z,990.62
2018-03-30T11:49:02.098Z,990.6
2018-03-30T11:50:12.160Z,990.61
2018-03-30T11:51:21.705Z,990.6
2018-03-30T11:52:31.786Z,990.6
2018-03-30T11:53:41.859Z,990.59
2018-03-30T11:54:51.675Z,990.58
2018-03-30T11:56:01.793Z,990.62
2018-03-30T11:57:11.686Z,990.6
2018-03-30T11:58:21.772Z,990.56
2018-03-30T11:59:31.625Z,990.52
2018-03-30T12:00:41.702Z,990.48
2018-03-30T12:01:51.859Z,990.47
2018-03-30T12:03:01.656Z,990.48
2018-03-30T12:04:11.732Z,990.5
2018-03-30T12:05:21.789Z,990.44
2018-03-30T12:06:31.861Z,990.55
2018-03-30T12:07:41.662Z,990.5
2018-03-30T12:08:51.835Z,990.46
2018-03-30T12:10:01.652Z,990.48
2018-03-30T12:11:11.728Z,990.45
2018-03-30T12:12:21.799Z,990.48
2018-03-30T12:13:31.614Z,990.43
2018-03-30T12:14:41.168Z,990.45
2018-03-30T12:15:50.735Z,990.36
2018-03-30T12:17:00.809Z,990.35
2018-03-30T12:18:10.884Z,990.3
2018-03-30T12:19:20.988Z,990.32
2018-03-30T12:20:31.063Z,990.26
2018-03-30T12:21:41.164Z,990.2
2018-03-30T12:22:51.230Z,990.1
2018-03-30T12:24:01.303Z,990.07
2018-03-30T12:25:11.431Z,990.14
2018-03-30T12:26:21.520Z,990.09
2018-03-30T12:27:31.604Z,990.08
2018-03-30T12:28:41.825Z,990.09
2018-03-30T12:29:51.895Z,990.02
2018-03-30T12:31:01.766Z,990
2018-03-30T12:32:11.845Z,989.94
2018-03-30T12:33:21.927Z,989.9
2018-03-30T12:34:32.008Z,989.85
2018-03-30T12:35:42.121Z,989.84
2018-03-30T12:36:52.219Z,989.79
2018-03-30T12:38:02.292Z,989.83
2018-03-30T12:39:12.377Z,989.82
2018-03-30T12:40:22.459Z,989.83
2018-03-30T12:41:32.270Z,989.79
2018-03-30T12:42:42.123Z,989.8
2018-03-30T12:43:52.217Z,989.79
2018-03-30T12:45:02.305Z,989.71
2018-03-30T12:46:12.123Z,989.72
2018-03-30T12:47:22.169Z,989.69
2018-03-30T12:48:32.270Z,989.65
2018-03-30T12:49:42.082Z,989.78
2018-03-30T12:50:51.899Z,989.75
2018-03-30T12:52:01.729Z,989.73
2018-03-30T12:53:11.843Z,989.62
2018-03-30T12:54:21.926Z,989.59
2018-03-30T12:55:31.996Z,989.55
2018-03-30T12:56:42.071Z,989.5
2018-03-30T12:57:51.889Z,989.47
2018-03-30T12:59:01.187Z,989.45
2018-03-30T13:00:10.798Z,989.39
2018-03-30T13:01:20.891Z,989.38
2018-03-30T13:02:30.989Z,989.38
2018-03-30T13:03:40.794Z,989.38
2018-03-30T13:04:50.894Z,989.36
2018-03-30T13:06:00.979Z,989.29
2018-03-30T13:07:11.223Z,989.27
2018-03-30T13:08:21.300Z,989.21
2018-03-30T13:09:31.395Z,989.19
2018-03-30T13:10:41.204Z,989.24
2018-03-30T13:11:51.270Z,989.22
2018-03-30T13:13:01.372Z,989.2
2018-03-30T13:14:11.485Z,989.15
2018-03-30T13:15:21.653Z,989.18
2018-03-30T13:16:31.496Z,988.99
2018-03-30T13:17:41.583Z,989.03
2018-03-30T13:18:51.405Z,989.01
2018-03-30T13:20:01.529Z,988.96
2018-03-30T13:21:11.664Z,988.97
2018-03-30T13:22:21.680Z,988.92
2018-03-30T13:23:31.484Z,988.85
2018-03-30T13:24:41.608Z,988.84
2018-03-30T13:25:51.407Z,988.8
2018-03-30T13:27:01.491Z,988.74
2018-03-30T13:28:11.558Z,988.82
2018-03-30T13:29:21.635Z,988.69
2018-03-30T13:30:31.723Z,988.62
2018-03-30T13:31:41.529Z,988.61
2018-03-30T13:32:51.602Z,988.61
2018-03-30T13:34:01.682Z,988.66
2018-03-30T13:35:11.489Z,988.6
2018-03-30T13:36:21.606Z,988.59
2018-03-30T13:37:31.770Z,988.63
2018-03-30T13:38:41.863Z,988.6
2018-03-30T13:39:51.688Z,988.54
2018-03-30T13:41:01.240Z,988.49
2018-03-30T13:42:11.334Z,988.51
2018-03-30T13:43:21.425Z,988.46
2018-03-30T13:44:31.553Z,988.38
2018-03-30T13:45:41.693Z,988.47
2018-03-30T13:46:51.493Z,988.47
2018-03-30T13:48:01.295Z,988.46
2018-03-30T13:49:11.222Z,988.44
2018-03-30T13:50:20.520Z,988.44
2018-03-30T13:51:30.610Z,988.45
2018-03-30T13:52:40.707Z,988.41
2018-03-30T13:53:50.841Z,988.32
2018-03-30T13:55:00.393Z,988.26
2018-03-30T13:56:10.527Z,988.25
2018-03-30T13:57:20.052Z,988.27
2018-03-30T13:58:29.861Z,988.34
2018-03-30T13:59:39.953Z,988.17
2018-03-30T14:00:49.868Z,988.11
2018-03-30T14:01:59.667Z,988.11
2018-03-30T14:03:09.494Z,988.08
2018-03-30T14:04:19.348Z,988.06
2018-03-30T14:05:28.907Z,988.11
2018-03-30T14:06:38.796Z,988.16
2018-03-30T14:07:48.882Z,988.14
2018-03-30T14:08:58.701Z,988.11
2018-03-30T14:10:08.526Z,988.17
2018-03-30T14:11:18.075Z,988.07
2018-03-30T14:12:27.894Z,988.04
2018-03-30T14:13:37.999Z,988.07
2018-03-30T14:14:48.073Z,988.05
2018-03-30T14:15:58.155Z,988.1
2018-03-30T14:17:07.717Z,988.02
2018-03-30T14:18:17.544Z,987.99
2018-03-30T14:19:27.621Z,987.94
2018-03-30T14:20:37.438Z,987.94
2018-03-30T14:21:47.283Z,987.9
2018-03-30T14:22:57.096Z,987.84
2018-03-30T14:24:06.893Z,987.89
2018-03-30T14:25:16.436Z,987.84
2018-03-30T14:26:26.511Z,987.8
2018-03-30T14:27:36.773Z,987.81
2018-03-30T14:28:46.838Z,987.77
2018-03-30T14:29:56.919Z,987.73
2018-03-30T14:31:07.003Z,987.69
2018-03-30T14:32:17.062Z,987.63
2018-03-30T14:33:27.187Z,987.61
2018-03-30T14:34:37.055Z,987.64
2018-03-30T14:35:47.225Z,987.56
2018-03-30T14:36:56.771Z,987.58
2018-03-30T14:38:06.848Z,987.52
2018-03-30T14:39:16.940Z,987.49
2018-03-30T14:40:27.039Z,987.48
2018-03-30T14:41:36.841Z,987.45
2018-03-30T14:42:46.696Z,987.44
2018-03-30T14:43:56.258Z,987.4
2018-03-30T14:45:06.346Z,987.4
2018-03-30T14:46:16.432Z,987.4
2018-03-30T14:47:26.532Z,987.36
2018-03-30T14:48:36.615Z,987.27
2018-03-30T14:49:46.167Z,987.26
2018-03-30T14:50:56.265Z,987.18
2018-03-30T14:52:06.112Z,987.22
2018-03-30T14:53:16.265Z,987.24
2018-03-30T14:54:25.832Z,987.29
2018-03-30T14:55:35.939Z,987.19
2018-03-30T14:56:45.780Z,987.17
2018-03-30T14:57:55.601Z,987.18
2018-03-30T14:59:05.457Z,987.2
2018-03-30T15:00:15.529Z,987.16
2018-03-30T15:01:25.345Z,987.06
2018-03-30T15:02:35.432Z,987.05
2018-03-30T15:03:45.519Z,987.06
2018-03-30T15:04:55.357Z,987.1
2018-03-30T15:06:04.943Z,986.98